Neil Armstrong — WARL — position and weather

sailwx.info

Track history (hours):
 
Tides and Currents Weather Stations Pressure Air Temp Water Temp Dewpoint Dewpoint Depression Visibility Wind Speed Wind Dir Waves Ship Positions

Oceanographic research ship Neil Armstrong (United States)

Owner: Woods Hole Oceanographic Institution, Woods Hole, MA. More information available from US FCC via Universal Licensing System and Coast Guard Vessel Documentation Center.

Last reported at 2019-Jan-24 21:00 UTC. Time now 2019-Feb-16 04:01 UTC.
Position N 41°30' W 070°42'.
Warning: this ship's position is 22 days out of date.

Length 72 m; draft 4.4 m.

Type: Ship. MMSI: 338767000.

Wind from 170 at 34 knots

Barometer 991.3 mb
Air temperature 11.2 ° C
Dewpoint 10.1 ° C
Water temperature 2.1 ° C

Date/timePositionNaut miles runAvg speedWind from/ knotsBaromVisibWave heightAir tempDewpointWater temp
2019-Jan-24 21:00N 41°30' W 070°42'0 0.0 170 / 34991.3 11.210.1 2.1
2019-Jan-24 20:00N 41°30' W 070°42'0 0.0 180 / 34994.2 11.310.1 2.0
2019-Jan-24 19:00N 41°30' W 070°42'0 0.0 180 / 29996.9 10.7 9.5 1.9
2019-Jan-24 18:00N 41°30' W 070°42'0 0.0 180 / 25999.3 10.2 8.9 1.8
2019-Jan-24 17:00N 41°30' W 070°42'0 0.0 180 / 301000.9 10.6 8.5 1.7
2019-Jan-24 16:00N 41°30' W 070°42'0 0.0 180 / 281003.3 10.7 8.4 1.6
2019-Jan-24 15:00N 41°30' W 070°42'0 0.0 190 / 271004.7 10.6 8.2 1.6
2019-Jan-24 14:00N 41°30' W 070°42'0 0.0 190 / 201006.1 10.7 8.1 1.6
2019-Jan-24 13:00N 41°30' W 070°42'0 0.0 200 / 141007.6 11.0 7.9 1.5
2019-Jan-24 12:00N 41°30' W 070°42'0 0.0 190 / 221009.2 11.1 7.7 1.6
2019-Jan-24 11:00N 41°30' W 070°42'0 0.0 190 / 111010.4 10.5 7.2 1.4
2019-Jan-24 10:00N 41°30' W 070°42'0 0.0 190 / 161011.5 10.0 7.1 1.5
2019-Jan-24 09:00N 41°30' W 070°42'0 0.0 190 / 101012.6 9.8 7.1 1.4
2019-Jan-24 08:00N 41°30' W 070°42'0 0.0 210 / 101013.9 9.0 6.7 1.2
2019-Jan-24 07:00N 41°30' W 070°42'0 0.0 200 / 71015.0 8.3 6.2 1.1
2019-Jan-24 06:00N 41°30' W 070°42'0 0.0 220 / 161015.5 8.9 6.3 1.1
2019-Jan-24 05:00N 41°30' W 070°42'0 0.0 200 / 101015.7 9.4 6.4 1.1
2019-Jan-24 04:00N 41°30' W 070°42'0 0.0 220 / 91016.6 8.3 5.6 1.0
2019-Jan-24 03:00N 41°30' W 070°42'0 0.0 200 / 41017.5 7.6 5.3 1.0
2019-Jan-24 02:00N 41°30' W 070°42'0 0.0 200 / 61017.6 7.8 5.7 1.0
2019-Jan-24 01:00N 41°30' W 070°42'0 0.0 190 / 91018.8 7.2 4.9 1.0
2019-Jan-24 00:00N 41°30' W 070°42'0 0.0 190 / 111019.7 6.9 4.6 1.1
2019-Jan-23 23:00N 41°30' W 070°42'0 0.0 190 / 71020.5 6.4 3.9 1.0
2019-Jan-23 22:00N 41°30' W 070°42'0 0.0 180 / 81021.3 6.2 2.7 1.0
2019-Jan-23 21:00N 41°30' W 070°42'0 0.0 200 / 61022.1 5.8 3.0 1.0
2019-Jan-23 20:00N 41°30' W 070°42'0 0.0 200 / 61022.9 5.6 2.8 1.0
2019-Jan-23 19:00N 41°30' W 070°42'0 0.0 190 / 71023.1 5.4 2.0 0.9
2019-Jan-23 18:00N 41°30' W 070°42'0 0.0 190 / 61024.5 5.4 1.2 0.8
2019-Jan-23 17:00N 41°30' W 070°42'0 0.0 200 / 81025.7 5.3 1.1 0.8
2019-Jan-23 16:00N 41°30' W 070°42'0 0.0 200 / 61027.2 4.8 0.5 0.8
2019-Jan-23 15:00N 41°30' W 070°42'0 0.0 220 / 111028.0 4.0-0.4 0.8
2019-Jan-23 14:00N 41°30' W 070°42'0 0.0 230 / 151028.6 3.7-1.7 0.8
2019-Jan-23 13:00N 41°30' W 070°42'0 0.0 220 / 101029.2 2.7-1.9 0.7
2019-Jan-23 12:00N 41°30' W 070°42'0 0.0 190 / 51029.5 1.9-2.9 0.7
2019-Jan-23 11:00N 41°30' W 070°42'0 0.0 180 / 51030.4 0.4-4.3 0.9
2019-Jan-23 10:00N 41°30' W 070°42'0 0.0 190 / 41031.2 -1.4-6.1 0.8
2019-Jan-23 09:00N 41°30' W 070°42'0 0.0 100 / 11031.8 -2.9-8.4 0.9
2019-Jan-23 08:00N 41°30' W 070°42'0 0.0 150 / 31032.8 -3.6-11.2 0.8
2019-Jan-23 07:00N 41°30' W 070°42'0 0.0 260 / 31033.9 -3.2-12.2 0.7
2019-Jan-23 06:00N 41°30' W 070°42'0 0.0 280 / 71034.1 -3.2-13.1 0.7
2019-Jan-23 05:00N 41°30' W 070°42'0 0.0 290 / 81035.0 -3.4-14.1 0.6
2019-Jan-23 04:00N 41°30' W 070°42'0 0.0 280 / 101035.3 -3.4-13.5 0.7
2019-Jan-23 03:00N 41°30' W 070°42'0 0.0 280 / 91035.4 -3.2-12.9 0.8
2019-Jan-23 02:00N 41°30' W 070°42'0 0.0 280 / 141035.1 -3.1-13.9 0.8
2019-Jan-23 01:00N 41°30' W 070°42'0 0.0 280 / 181035.6 -3.3-13.0 0.7
2019-Jan-23 00:00N 41°30' W 070°42'0 0.0 290 / 151035.7 -3.2-13.1 0.6
2019-Jan-22 23:00N 41°30' W 070°42'0 0.0 280 / 101034.6 -2.9-13.1 0.8
2019-Jan-22 22:00N 41°30' W 070°42'0 0.0 280 / 111034.6 -2.5-15.1 1.0
2019-Jan-22 21:00N 41°30' W 070°42'0 0.0 290 / 111034.3 -2.6-14.7 1.0
2019-Jan-22 20:00N 41°30' W 070°42'0 0.0 300 / 131033.5 -2.8-15.7 0.9
2019-Jan-22 19:00N 41°30' W 070°42'0 0.0 320 / 101032.4 -3.3-17.6 1.0
2019-Jan-22 18:00N 41°30' W 070°42'0 0.0 330 / 141032.2 -4.1-16.9 0.8
2019-Jan-22 17:00N 41°30' W 070°42'0 0.0 320 / 91032.6 -5.5-17.0 0.8
2019-Jan-22 16:00N 41°30' W 070°42'0 0.0 300 / 181033.1 -7.3-16.6 0.9
2019-Jan-22 15:00N 41°30' W 070°42'0 0.0 310 / 111033.3 -8.6-18.4 0.8
2019-Jan-22 14:00N 41°30' W 070°42'0 0.0 310 / 161032.0 -9.8-18.6 0.7
2019-Jan-22 13:00N 41°30' W 070°42'0 0.0 320 / 111031.0 -10.7-18.1 0.7
2019-Jan-22 12:00N 41°30' W 070°42'0 0.0 350 / 91029.4 -10.7-18.1 0.6
2019-Jan-22 11:00N 41°30' W 070°42'0 0.0 340 / 111027.6 -11.2-19.1 0.6
2019-Jan-22 10:00N 41°30' W 070°42'0 0.0 330 / 131026.2 -11.7-19.9 0.7
2019-Jan-22 09:00N 41°30' W 070°42'0 0.0 320 / 141024.4 -12.4-20.6 0.7
2019-Jan-22 08:00N 41°30' W 070°42'0 0.0 310 / 121023.9 -12.9-20.6 0.8
2019-Jan-22 07:00N 41°30' W 070°42'0 0.0 300 / 251023.0 -12.9-19.7 0.9
2019-Jan-22 06:00N 41°30' W 070°42'0 0.0 270 / 171021.4 -13.2-19.1 0.9
2019-Jan-22 05:00N 41°30' W 070°42'0 0.0 290 / 341020.6 -13.5-19.4 1.0
2019-Jan-22 04:00N 41°30' W 070°42'0 0.0 310 / 201020.3 -13.4-19.8 1.2
2019-Jan-22 03:00N 41°30' W 070°42'0 0.0 310 / 171019.0 -13.0-18.6 1.3
2019-Jan-22 02:00N 41°30' W 070°42'0 0.0 320 / 221017.4 -13.2-19.6 1.3
2019-Jan-22 01:00N 41°30' W 070°42'0 0.0 320 / 181016.5 -13.9-18.9 1.3
2019-Jan-22 00:00N 41°30' W 070°42'0 0.0 290 / 181015.3 -14.1-18.6 1.3
2019-Jan-21 23:00N 41°30' W 070°42'0 0.0 310 / 231014.1 -14.6-20.2 1.2
2019-Jan-21 22:00N 41°30' W 070°42'0 0.0 320 / 131012.8 -14.4-20.0 1.4
2019-Jan-21 21:00N 41°30' W 070°42'0 0.0 290 / 251011.3 -14.4-18.9 1.4
2019-Jan-21 20:00N 41°30' W 070°42'0 0.0 290 / 171010.1 -14.2-19.0 1.5
2019-Jan-21 19:00N 41°30' W 070°42'0 0.0 310 / 151009.1 -14.4-19.9 1.5
2019-Jan-21 18:00N 41°30' W 070°42'0 0.0 300 / 211008.9 -14.6-18.4 1.7
2019-Jan-21 17:00N 41°30' W 070°42'0 0.0 300 / 121009.0 -14.9-20.1 1.8
2019-Jan-21 16:00N 41°30' W 070°42'0 0.0 300 / 151009.4 -14.9-20.0 1.7
2019-Jan-21 15:00N 41°30' W 070°42'0 0.0 300 / 221008.9 -15.2-19.7 1.8
2019-Jan-21 14:00N 41°30' W 070°42'0 0.0 310 / 161008.5 -15.0-19.4 1.8
2019-Jan-21 13:00N 41°30' W 070°42'0 0.0 290 / 291006.9 -15.4-20.3 1.9
2019-Jan-21 12:00N 41°30' W 070°42'0 0.0 300 / 201006.0 -15.3-20.3 1.9
2019-Jan-21 11:00N 41°30' W 070°42'0 0.0 290 / 191005.2 -14.6-18.6 1.9
2019-Jan-21 10:00N 41°30' W 070°42'0 0.0 300 / 241004.2 -14.1-18.6 1.9
2019-Jan-21 09:00N 41°30' W 070°42'0 0.0 310 / 191003.4 -13.5-18.6 2.0
2019-Jan-21 08:00N 41°30' W 070°42'0 0.0 290 / 251002.7 -12.4-17.0 2.0
2019-Jan-21 07:00N 41°30' W 070°42'0 0.0 300 / 211002.0 -12.2-17.1 2.2
2019-Jan-21 06:00N 41°30' W 070°42'0 0.0 320 / 151000.7 -11.0-15.6 2.3
2019-Jan-21 05:00N 41°30' W 070°42'0 0.0 310 / 14999.8 -9.1-13.6 2.5
2019-Jan-21 04:00N 41°30' W 070°42'0 0.0 330 / 21998.0 -7.3-12.8 2.6
2019-Jan-21 03:00N 41°30' W 070°42'0 0.0 340 / 9996.9 -4.8-9.6 2.5
2019-Jan-21 02:00N 41°30' W 070°42'0 0.0 300 / 15995.3 -3.2-7.9 2.5
2019-Jan-21 01:00N 41°30' W 070°42'0 0.0 320 / 19993.8 -2.4-5.5 2.5
2019-Jan-21 00:00N 41°30' W 070°42'0 0.0 330 / 14992.9 -2.7-4.7 2.6
2019-Jan-20 23:00N 41°30' W 070°42'0 0.0 350 / 11991.0 -3.0-4.2 2.6
2019-Jan-20 22:00N 41°30' W 070°42'0 0.0 350 / 11989.9 -1.7-3.1 2.6
2019-Jan-20 21:00N 41°30' W 070°42'0 0.0 330 / 14988.2 3.6 1.8 2.7
2019-Jan-20 20:00N 41°30' W 070°42'0 0.0 150 / 9987.4 9.9 8.9 2.7
2019-Jan-20 19:00N 41°30' W 070°42'0 0.0 110 / 7989.4 8.3 7.3 2.6
2019-Jan-20 18:00N 41°30' W 070°42'0 0.0 050 / 5990.6 6.5 5.5 2.6
2019-Jan-20 17:00N 41°30' W 070°42'0 0.0 090 / 1992.3 9.0 8.0 2.6
2019-Jan-20 16:00N 41°30' W 070°42'0 0.0 320 / 1994.8 7.6 6.6 2.5
2019-Jan-20 15:00N 41°30' W 070°42'0 0.0 180 / 25995.2 10.9 9.8 2.5
2019-Jan-20 14:00N 41°30' W 070°42'0 0.0 240 / 9997.4 9.7 8.8 2.5
2019-Jan-20 13:00N 41°30' W 070°42'0 0.0 350 / 5999.2 5.2 3.9 2.4
2019-Jan-20 12:00N 41°30' W 070°42'0 0.0 130 / 9999.1 9.3 8.4 2.4
2019-Jan-20 11:00N 41°30' W 070°42'0 0.0 130 / 11001.6 4.1 3.1 2.4
2019-Jan-20 10:00N 41°30' W 070°42'0 0.0 330 / 101004.9 2.9 1.8 2.3
2019-Jan-20 09:00N 41°30' W 070°42'0 0.0 070 / 131006.2 2.9 1.9 2.4
2019-Jan-20 08:00N 41°30' W 070°42'0 0.0 080 / 101009.7 2.3 1.2 2.4
2019-Jan-20 07:00N 41°30' W 070°42'0 0.0 080 / 101012.1 2.0 0.9 2.4
2019-Jan-20 06:00N 41°30' W 070°42'0 0.0 080 / 111014.2 1.4 0.3 2.4
2019-Jan-20 05:00N 41°30' W 070°42'0 0.0 080 / 161015.9 1.8 0.3 2.4
2019-Jan-20 04:00N 41°30' W 070°42'0 0.0 100 / 111018.3 1.9 0.5 2.4
2019-Jan-20 03:00N 41°30' W 070°42'0 0.0 100 / 161018.1 1.1-0.0 2.4
2019-Jan-20 02:00N 41°30' W 070°42'0 0.0 090 / 121020.6 0.6-0.5 2.4
2019-Jan-20 01:00N 41°30' W 070°42'0 0.0 110 / 111021.8 0.3-0.8 2.4
2019-Jan-20 00:00N 41°30' W 070°42'0 0.0 100 / 91021.7 -0.2-1.2 2.4
2019-Jan-19 23:00N 41°30' W 070°42'0 0.0 330 / 11023.0 -0.7-1.9 2.4
2019-Jan-19 22:00N 41°30' W 070°42'0 0.0 070 / 41023.2 -0.7-2.1 2.4
2019-Jan-19 21:00N 41°30' W 070°42'0 0.0 020 / 31023.3 -0.0-2.9 2.5
2019-Jan-19 20:00N 41°30' W 070°42'0 0.0 070 / 41022.4 0.2-3.7 2.6
2019-Jan-19 19:00N 41°30' W 070°42'0 0.0 070 / 81023.6 0.4-3.8 2.6
2019-Jan-19 18:00N 41°30' W 070°42'0 0.0 050 / 21024.0 0.4-3.6 2.6
2019-Jan-19 17:00N 41°30' W 070°42'0 0.0 050 / 61025.0 1.4-3.8 2.6
2019-Jan-19 16:00N 41°30' W 070°42'0 0.0 030 / 61025.0 2.5-3.7 2.5
2019-Jan-19 15:00N 41°30' W 070°42'0 0.0 340 / 51025.2 1.5-4.1 2.4
2019-Jan-19 14:00N 41°30' W 070°42'0 0.0 020 / 61024.1 -0.0-5.9 2.4
2019-Jan-19 13:00N 41°30' W 070°42'0 0.0 020 / 71023.8 -0.0-5.4 2.4
2019-Jan-19 12:00N 41°30' W 070°42'0 0.0 010 / 51023.8 0.1-6.2 2.4
2019-Jan-19 11:00N 41°30' W 070°42'0 0.0 020 / 71022.8 0.4-5.8 2.4
2019-Jan-19 10:00N 41°30' W 070°42'0 0.0 340 / 81022.1 0.9-5.6 2.5
2019-Jan-19 09:00N 41°30' W 070°42'0 0.0 330 / 81022.2 1.1-4.2 2.5
2019-Jan-19 08:00N 41°30' W 070°42'0 0.0 300 / 61021.0 1.4-2.8 2.6
2019-Jan-19 07:00N 41°30' W 070°42'0 0.0 310 / 41020.8 1.7-1.3 2.6
2019-Jan-19 06:00N 41°30' W 070°42'0 0.0 290 / 101020.4 2.2-1.1 2.6
2019-Jan-19 05:00N 41°30' W 070°42'0 0.0 300 / 81019.9 2.1-0.8 2.6
2019-Jan-19 04:00N 41°30' W 070°42'0 0.0 290 / 81019.4 2.3-0.4 2.5
2019-Jan-19 03:00N 41°30' W 070°42'0 0.0 270 / 91019.1 2.6-0.2 2.5
2019-Jan-19 02:00N 41°30' W 070°42'0 0.0 260 / 41018.3 2.2-0.3 2.5
2019-Jan-19 01:00N 41°30' W 070°42'0 0.0 250 / 101017.8 1.8 0.1 2.5
2019-Jan-19 00:00N 41°30' W 070°42'0 0.0 170 / 191017.3 1.5 0.4 2.5
2019-Jan-18 23:00N 41°30' W 070°42'0 0.0 190 / 261018.0 0.8-0.3 2.5
2019-Jan-18 22:00N 41°30' W 070°42'0 0.0 220 / 251017.3 0.9-0.2 2.5
2019-Jan-18 21:00N 41°30' W 070°42'0 0.0 170 / 41016.7 0.9-0.4 2.6
2019-Jan-18 20:00N 41°30' W 070°42'0 0.0 120 / 51017.2 1.6-0.0 2.6
2019-Jan-18 19:00N 41°30' W 070°42'0 0.0 110 / 51016.7 2.4-0.1 2.6
2019-Jan-18 18:00N 41°30' W 070°42'0 0.0 100 / 61017.6 2.0-0.2 2.6
2019-Jan-18 17:00N 41°30' W 070°42'0 0.0 100 / 81018.5 1.9-0.1 2.6
2019-Jan-18 16:00N 41°30' W 070°42'0 0.0 110 / 71019.7 1.7-0.2 2.5
2019-Jan-18 15:00N 41°30' W 070°42'0 0.0 110 / 121019.9 1.3-0.4 2.5
2019-Jan-18 14:00N 41°30' W 070°42'0 0.0 100 / 71020.4 1.1-0.9 2.5
2019-Jan-18 13:00N 41°30' W 070°42'0 0.0 110 / 111020.2 0.9-1.3 2.4
2019-Jan-18 12:00N 41°30' W 070°42'0 0.0 100 / 71020.7 0.8-2.7 2.4
2019-Jan-18 11:00N 41°30' W 070°42'0 0.0 120 / 61021.0 1.1-3.9 2.4
2019-Jan-18 10:00N 41°30' W 070°42'0 0.0 080 / 71021.2 -0.3-5.4 2.4
2019-Jan-18 09:00N 41°30' W 070°42'0 0.0 050 / 31022.2 -1.7-7.3 2.4
2019-Jan-18 08:00N 41°30' W 070°42'0 0.0 020 / 41023.5 -1.8-7.4 2.5
2019-Jan-18 07:00N 41°30' W 070°42'0 0.0 080 / 61023.8 -2.3-8.5 2.6
2019-Jan-18 06:00N 41°30' W 070°42'0 0.0 080 / 61024.7 -2.4-8.6 2.6
2019-Jan-18 05:00N 41°30' W 070°42'0 0.0 080 / 51025.7 -3.0-8.7 2.6
2019-Jan-18 04:00N 41°30' W 070°42'0 0.0 070 / 51026.8 -3.2-9.4 2.5
2019-Jan-18 03:00N 41°30' W 070°42'0 0.0 060 / 41027.2 -3.5-10.6 2.5
2019-Jan-18 02:00N 41°30' W 070°42'0 0.0 020 / 21027.1 -3.1-10.9 2.5
2019-Jan-18 01:00N 41°30' W 070°42'0 0.0 080 / 21027.9 -3.3-11.6 2.5
2019-Jan-18 00:00N 41°30' W 070°42'0 0.0 080 / 31027.7 -3.3-11.7 2.5
2019-Jan-17 23:00N 41°30' W 070°42'0 0.0 070 / 51027.6 -3.0-12.7 2.5
2019-Jan-17 22:00N 41°30' W 070°42'0 0.0 100 / 61027.5 -2.9-12.9 2.5
2019-Jan-17 21:00N 41°30' W 070°42'0 0.0 130 / 61027.5 -2.5-15.3 2.5
2019-Jan-17 20:00N 41°30' W 070°42'0 0.0 290 / 31027.7 -2.0-19.2 2.5
2019-Jan-17 19:00N 41°30' W 070°42'0 0.0 330 / 61027.9 -2.3-18.0 2.7
2019-Jan-17 18:00N 41°30' W 070°42'0 0.0 320 / 31027.9 -3.0-15.8 2.8
2019-Jan-17 17:00N 41°30' W 070°42'0 0.0 320 / 61028.7 -4.0-15.7 2.9
2019-Jan-17 16:00N 41°30' W 070°42'0 0.0 010 / 81029.3 -4.6-16.3 3.0
2019-Jan-17 15:00N 41°30' W 070°42'0 0.0 350 / 71029.7 -5.1-15.9 2.7
2019-Jan-17 14:00N 41°30' W 070°42'0 0.0 1028.9 -4.9-15.8 2.5
2019-Jan-17 13:00N 41°30' W 070°42'0 0.0 330 / 61027.9 -4.6-16.2 2.5
2019-Jan-17 12:00N 41°30' W 070°42'0 0.0 340 / 111026.7 -4.1-16.1 2.5
2019-Jan-17 11:00N 41°30' W 070°42'0 0.0 350 / 141025.6 -3.0-12.9 2.5
2019-Jan-17 10:00N 41°30' W 070°42'0 0.0 350 / 171024.7 -2.1-12.2 2.5
2019-Jan-17 09:00N 41°30' W 070°42'0 0.0 310 / 101023.9 -1.2-9.8 2.6
2019-Jan-17 08:00N 41°30' W 070°42'0 0.0 320 / 151023.4 -0.6-9.6 2.6
2019-Jan-17 07:00N 41°30' W 070°42'0 0.0 310 / 111022.4 -0.2-9.6 2.6
2019-Jan-17 06:00N 41°30' W 070°42'0 0.0 300 / 131021.3 0.4-8.5 2.7
2019-Jan-17 05:00N 41°30' W 070°42'0 0.0 290 / 161020.5 1.3-6.9 2.7
2019-Jan-17 04:00N 41°30' W 070°42'0 0.0 290 / 171019.7 2.2-5.1 2.6
2019-Jan-17 03:00N 41°30' W 070°42'0 0.0 280 / 171018.8 2.9-4.3 2.6
2019-Jan-17 02:00N 41°30' W 070°42'0 0.0 260 / 151018.0 3.3-3.7 2.6
2019-Jan-17 01:00N 41°30' W 070°42'0 0.0 260 / 131017.4 2.9-4.0 2.6
2019-Jan-17 00:00N 41°30' W 070°42'0 0.0 240 / 121017.3 2.3-4.3 2.6
2019-Jan-16 23:00N 41°30' W 070°42'0 0.0 250 / 101016.5 2.3-4.7 2.6
2019-Jan-16 22:00N 41°30' W 070°42'0 0.0 280 / 131015.9 2.4-5.2 2.7
2019-Jan-16 21:00N 41°30' W 070°42'0 0.0 290 / 161015.4 2.3-5.0 2.7
2019-Jan-16 20:00N 41°30' W 070°42'0 0.0 270 / 151014.8 2.0-4.0 2.7
2019-Jan-16 19:00N 41°30' W 070°42'0 0.0 260 / 161014.3 1.8-4.4 2.7
2019-Jan-16 18:00N 41°30' W 070°42'0 0.0 260 / 181014.7 1.6-4.6 2.7
2019-Jan-16 17:00N 41°30' W 070°42'0 0.0 240 / 201015.2 2.2-4.0 2.7
2019-Jan-16 16:00N 41°30' W 070°42'0 0.0 240 / 181016.1 2.5-3.8 2.9
2019-Jan-16 15:00N 41°30' W 070°42'0 0.0 250 / 121016.7 3.0-2.3 2.8
2019-Jan-16 14:00N 41°30' W 070°42'0 0.0 230 / 141016.7 2.6-3.5 2.6
2019-Jan-16 13:00N 41°30' W 070°42'0 0.0 230 / 101016.7 1.3-4.3 2.6
2019-Jan-16 12:00N 41°30' W 070°42'0 0.0 260 / 51016.8 0.3-3.3 2.6
2019-Jan-16 11:00N 41°30' W 070°42'0 0.0 280 / 61016.8 0.2-4.8 2.6
2019-Jan-16 10:00N 41°30' W 070°42'0 0.0 250 / 31016.9 -0.0-5.2 2.5
2019-Jan-16 09:00N 41°30' W 070°42'0 0.0 230 / 31016.6 -0.1-4.3 2.6
2019-Jan-16 08:00N 41°30' W 070°42'0 0.0 180 / 31017.1 -0.5-4.7 2.6
2019-Jan-16 07:00N 41°30' W 070°42'0 0.0 230 / 11017.8 -1.0-5.3 2.6
2019-Jan-16 06:00N 41°30' W 070°42'0 0.0 310 / 11017.8 -0.6-5.6 2.6
2019-Jan-16 05:00N 41°30' W 070°42'0 0.0 320 / 21018.4 -0.4-6.4 2.8
2019-Jan-16 04:00N 41°30' W 070°42'0 0.0 310 / 21019.0 -0.2-5.6 2.8
2019-Jan-16 03:00N 41°30' W 070°42'0 0.0 220 / 31019.2 0.1-6.0 2.9
2019-Jan-16 02:00N 41°30' W 070°42'0 0.0 150 / 31019.3 -0.0-7.0 2.9
2019-Jan-16 01:00N 41°30' W 070°42'0 0.0 130 / 31019.1 -0.0-6.6 2.8
2019-Jan-16 00:00N 41°30' W 070°42'0 0.0 120 / 31019.1 0.1-7.9 2.7
2019-Jan-15 23:00N 41°30' W 070°42'0 0.0 110 / 31018.8 0.3-9.9 2.7
2019-Jan-15 22:00N 41°30' W 070°42'0 0.0 130 / 31018.3 0.3-10.4 2.7
2019-Jan-15 21:00N 41°30' W 070°42'0 0.0 100 / 21018.1 0.4-10.4 2.7
2019-Jan-15 20:00N 41°30' W 070°42'0 0.0 040 / 21018.1 0.4-10.5 2.7
2019-Jan-15 19:00N 41°30' W 070°42'0 0.0 350 / 41017.8 0.3-10.2 2.7
2019-Jan-15 18:00N 41°30' W 070°42'0 0.0 020 / 41017.6 0.2-11.3 2.6
2019-Jan-15 17:00N 41°30' W 070°42'0 0.0 350 / 51017.9 -0.6-11.9 2.8
2019-Jan-15 16:00N 41°30' W 070°42'0 0.0 330 / 31018.7 -1.8-11.3 3.0
2019-Jan-15 15:00N 41°30' W 070°42'0 0.0 330 / 71019.3 -2.8-11.9 2.9
2019-Jan-15 14:00N 41°30' W 070°42'0 0.0 330 / 71018.8 -2.7-11.8 2.9
2019-Jan-15 13:00N 41°30' W 070°42'0 0.0 1017.9 -3.1-11.3 2.8
2019-Jan-15 12:00N 41°30' W 070°42'0 0.0 330 / 71017.5 -3.2-12.0 2.5
2019-Jan-15 11:00N 41°30' W 070°42'0 0.0 340 / 101017.3 -2.8-11.9 2.6
2019-Jan-15 10:00N 41°30' W 070°42'0 0.0 360 / 71017.0 -3.1-11.0 2.6
2019-Jan-15 09:00N 41°30' W 070°42'0 0.0 1016.8 -2.8-11.2 2.6
2019-Jan-15 08:00N 41°30' W 070°42'0 0.0 340 / 91017.1 -2.6-9.7 2.6
2019-Jan-15 07:00N 41°30' W 070°42'0 0.0 330 / 71017.4 -2.3-8.9 2.5
2019-Jan-15 06:00N 41°30' W 070°42'0 0.0 300 / 91017.3 -2.2-8.9 2.5
2019-Jan-15 05:00N 41°30' W 070°42'0 0.0 300 / 101017.5 -2.0-7.8 2.5
2019-Jan-15 04:00N 41°30' W 070°42'0 0.0 310 / 81018.2 -1.6-7.1 2.8
2019-Jan-15 03:00N 41°30' W 070°42'0 0.0 330 / 51018.5 -1.9-6.8 2.9
2019-Jan-15 02:00N 41°30' W 070°42'0 0.0 030 / 41018.6 -2.0-7.1 2.8
2019-Jan-15 01:00N 41°30' W 070°42'0 0.0 360 / 21019.1 -2.0-6.7 2.8
2019-Jan-15 00:00N 41°30' W 070°42'0 0.0 010 / 61019.3 -1.8-6.8 2.7
2019-Jan-14 23:00N 41°30' W 070°42'0 0.0 010 / 81019.5 -1.1-5.8 2.7
2019-Jan-14 22:00N 41°30' W 070°42'0 0.0 030 / 61019.2 -0.7-5.8 2.7
2019-Jan-14 21:00N 41°30' W 070°42'   020 / 101019.0 -0.3-5.9 2.7
Track history (hours):
 
Tides and Currents Weather Stations Pressure Air Temp Water Temp Dewpoint Dewpoint Depression Visibility Wind Speed Wind Dir Waves Ship Positions

Oceanographic research ship Neil Armstrong (United States)

Owner: Woods Hole Oceanographic Institution, Woods Hole, MA. More information available from US FCC via Universal Licensing System and Coast Guard Vessel Documentation Center.

Last reported at 2019-Jan-24 21:00 UTC. Time now 2019-Feb-16 04:01 UTC.
Position N 41°30' W 070°42'.
Warning: this ship's position is 22 days out of date.

Length 72 m; draft 4.4 m.

Type: Ship. MMSI: 338767000.

Wind from 170 at 34 knots

Barometer 991.3 mb
Air temperature 11.2 ° C
Dewpoint 10.1 ° C
Water temperature 2.1 ° C

Date/timePositionNaut miles runAvg speedWind from/ knotsBaromVisibWave heightAir tempDewpointWater temp
2019-Jan-24 21:00N 41°30' W 070°42'0 0.0 170 / 34991.3 11.210.1 2.1
2019-Jan-24 20:00N 41°30' W 070°42'0 0.0 180 / 34994.2 11.310.1 2.0
2019-Jan-24 19:00N 41°30' W 070°42'0 0.0 180 / 29996.9 10.7 9.5 1.9
2019-Jan-24 18:00N 41°30' W 070°42'0 0.0 180 / 25999.3 10.2 8.9 1.8
2019-Jan-24 17:00N 41°30' W 070°42'0 0.0 180 / 301000.9 10.6 8.5 1.7
2019-Jan-24 16:00N 41°30' W 070°42'0 0.0 180 / 281003.3 10.7 8.4 1.6
2019-Jan-24 15:00N 41°30' W 070°42'0 0.0 190 / 271004.7 10.6 8.2 1.6
2019-Jan-24 14:00N 41°30' W 070°42'0 0.0 190 / 201006.1 10.7 8.1 1.6
2019-Jan-24 13:00N 41°30' W 070°42'0 0.0 200 / 141007.6 11.0 7.9 1.5
2019-Jan-24 12:00N 41°30' W 070°42'0 0.0 190 / 221009.2 11.1 7.7 1.6
2019-Jan-24 11:00N 41°30' W 070°42'0 0.0 190 / 111010.4 10.5 7.2 1.4
2019-Jan-24 10:00N 41°30' W 070°42'0 0.0 190 / 161011.5 10.0 7.1 1.5
2019-Jan-24 09:00N 41°30' W 070°42'0 0.0 190 / 101012.6 9.8 7.1 1.4
2019-Jan-24 08:00N 41°30' W 070°42'0 0.0 210 / 101013.9 9.0 6.7 1.2
2019-Jan-24 07:00N 41°30' W 070°42'0 0.0 200 / 71015.0 8.3 6.2 1.1
2019-Jan-24 06:00N 41°30' W 070°42'0 0.0 220 / 161015.5 8.9 6.3 1.1
2019-Jan-24 05:00N 41°30' W 070°42'0 0.0 200 / 101015.7 9.4 6.4 1.1
2019-Jan-24 04:00N 41°30' W 070°42'0 0.0 220 / 91016.6 8.3 5.6 1.0
2019-Jan-24 03:00N 41°30' W 070°42'0 0.0 200 / 41017.5 7.6 5.3 1.0
2019-Jan-24 02:00N 41°30' W 070°42'0 0.0 200 / 61017.6 7.8 5.7 1.0
2019-Jan-24 01:00N 41°30' W 070°42'0 0.0 190 / 91018.8 7.2 4.9 1.0
2019-Jan-24 00:00N 41°30' W 070°42'0 0.0 190 / 111019.7 6.9 4.6 1.1
2019-Jan-23 23:00N 41°30' W 070°42'0 0.0 190 / 71020.5 6.4 3.9 1.0
2019-Jan-23 22:00N 41°30' W 070°42'0 0.0 180 / 81021.3 6.2 2.7 1.0
2019-Jan-23 21:00N 41°30' W 070°42'0 0.0 200 / 61022.1 5.8 3.0 1.0
2019-Jan-23 20:00N 41°30' W 070°42'0 0.0 200 / 61022.9 5.6 2.8 1.0
2019-Jan-23 19:00N 41°30' W 070°42'0 0.0 190 / 71023.1 5.4 2.0 0.9
2019-Jan-23 18:00N 41°30' W 070°42'0 0.0 190 / 61024.5 5.4 1.2 0.8
2019-Jan-23 17:00N 41°30' W 070°42'0 0.0 200 / 81025.7 5.3 1.1 0.8
2019-Jan-23 16:00N 41°30' W 070°42'0 0.0 200 / 61027.2 4.8 0.5 0.8
2019-Jan-23 15:00N 41°30' W 070°42'0 0.0 220 / 111028.0 4.0-0.4 0.8
2019-Jan-23 14:00N 41°30' W 070°42'0 0.0 230 / 151028.6 3.7-1.7 0.8
2019-Jan-23 13:00N 41°30' W 070°42'0 0.0 220 / 101029.2 2.7-1.9 0.7
2019-Jan-23 12:00N 41°30' W 070°42'0 0.0 190 / 51029.5 1.9-2.9 0.7
2019-Jan-23 11:00N 41°30' W 070°42'0 0.0 180 / 51030.4 0.4-4.3 0.9
2019-Jan-23 10:00N 41°30' W 070°42'0 0.0 190 / 41031.2 -1.4-6.1 0.8
2019-Jan-23 09:00N 41°30' W 070°42'0 0.0 100 / 11031.8 -2.9-8.4 0.9
2019-Jan-23 08:00N 41°30' W 070°42'0 0.0 150 / 31032.8 -3.6-11.2 0.8
2019-Jan-23 07:00N 41°30' W 070°42'0 0.0 260 / 31033.9 -3.2-12.2 0.7
2019-Jan-23 06:00N 41°30' W 070°42'0 0.0 280 / 71034.1 -3.2-13.1 0.7
2019-Jan-23 05:00N 41°30' W 070°42'0 0.0 290 / 81035.0 -3.4-14.1 0.6
2019-Jan-23 04:00N 41°30' W 070°42'0 0.0 280 / 101035.3 -3.4-13.5 0.7
2019-Jan-23 03:00N 41°30' W 070°42'0 0.0 280 / 91035.4 -3.2-12.9 0.8
2019-Jan-23 02:00N 41°30' W 070°42'0 0.0 280 / 141035.1 -3.1-13.9 0.8
2019-Jan-23 01:00N 41°30' W 070°42'0 0.0 280 / 181035.6 -3.3-13.0 0.7
2019-Jan-23 00:00N 41°30' W 070°42'0 0.0 290 / 151035.7 -3.2-13.1 0.6
2019-Jan-22 23:00N 41°30' W 070°42'0 0.0 280 / 101034.6 -2.9-13.1 0.8
2019-Jan-22 22:00N 41°30' W 070°42'0 0.0 280 / 111034.6 -2.5-15.1 1.0
2019-Jan-22 21:00N 41°30' W 070°42'0 0.0 290 / 111034.3 -2.6-14.7 1.0
2019-Jan-22 20:00N 41°30' W 070°42'0 0.0 300 / 131033.5 -2.8-15.7 0.9
2019-Jan-22 19:00N 41°30' W 070°42'0 0.0 320 / 101032.4 -3.3-17.6 1.0
2019-Jan-22 18:00N 41°30' W 070°42'0 0.0 330 / 141032.2 -4.1-16.9 0.8
2019-Jan-22 17:00N 41°30' W 070°42'0 0.0 320 / 91032.6 -5.5-17.0 0.8
2019-Jan-22 16:00N 41°30' W 070°42'0 0.0 300 / 181033.1 -7.3-16.6 0.9
2019-Jan-22 15:00N 41°30' W 070°42'0 0.0 310 / 111033.3 -8.6-18.4 0.8
2019-Jan-22 14:00N 41°30' W 070°42'0 0.0 310 / 161032.0 -9.8-18.6 0.7
2019-Jan-22 13:00N 41°30' W 070°42'0 0.0 320 / 111031.0 -10.7-18.1 0.7
2019-Jan-22 12:00N 41°30' W 070°42'0 0.0 350 / 91029.4 -10.7-18.1 0.6
2019-Jan-22 11:00N 41°30' W 070°42'0 0.0 340 / 111027.6 -11.2-19.1 0.6
2019-Jan-22 10:00N 41°30' W 070°42'0 0.0 330 / 131026.2 -11.7-19.9 0.7
2019-Jan-22 09:00N 41°30' W 070°42'0 0.0 320 / 141024.4 -12.4-20.6 0.7
2019-Jan-22 08:00N 41°30' W 070°42'0 0.0 310 / 121023.9 -12.9-20.6 0.8
2019-Jan-22 07:00N 41°30' W 070°42'0 0.0 300 / 251023.0 -12.9-19.7 0.9
2019-Jan-22 06:00N 41°30' W 070°42'0 0.0 270 / 171021.4 -13.2-19.1 0.9
2019-Jan-22 05:00N 41°30' W 070°42'0 0.0 290 / 341020.6 -13.5-19.4 1.0
2019-Jan-22 04:00N 41°30' W 070°42'0 0.0 310 / 201020.3 -13.4-19.8 1.2
2019-Jan-22 03:00N 41°30' W 070°42'0 0.0 310 / 171019.0 -13.0-18.6 1.3
2019-Jan-22 02:00N 41°30' W 070°42'0 0.0 320 / 221017.4 -13.2-19.6 1.3
2019-Jan-22 01:00N 41°30' W 070°42'0 0.0 320 / 181016.5 -13.9-18.9 1.3
2019-Jan-22 00:00N 41°30' W 070°42'0 0.0 290 / 181015.3 -14.1-18.6 1.3
2019-Jan-21 23:00N 41°30' W 070°42'0 0.0 310 / 231014.1 -14.6-20.2 1.2
2019-Jan-21 22:00N 41°30' W 070°42'0 0.0 320 / 131012.8 -14.4-20.0 1.4
2019-Jan-21 21:00N 41°30' W 070°42'0 0.0 290 / 251011.3 -14.4-18.9 1.4
2019-Jan-21 20:00N 41°30' W 070°42'0 0.0 290 / 171010.1 -14.2-19.0 1.5
2019-Jan-21 19:00N 41°30' W 070°42'0 0.0 310 / 151009.1 -14.4-19.9 1.5
2019-Jan-21 18:00N 41°30' W 070°42'0 0.0 300 / 211008.9 -14.6-18.4 1.7
2019-Jan-21 17:00N 41°30' W 070°42'0 0.0 300 / 121009.0 -14.9-20.1 1.8
2019-Jan-21 16:00N 41°30' W 070°42'0 0.0 300 / 151009.4 -14.9-20.0 1.7
2019-Jan-21 15:00N 41°30' W 070°42'0 0.0 300 / 221008.9 -15.2-19.7 1.8
2019-Jan-21 14:00N 41°30' W 070°42'0 0.0 310 / 161008.5 -15.0-19.4 1.8
2019-Jan-21 13:00N 41°30' W 070°42'0 0.0 290 / 291006.9 -15.4-20.3 1.9
2019-Jan-21 12:00N 41°30' W 070°42'0 0.0 300 / 201006.0 -15.3-20.3 1.9
2019-Jan-21 11:00N 41°30' W 070°42'0 0.0 290 / 191005.2 -14.6-18.6 1.9
2019-Jan-21 10:00N 41°30' W 070°42'0 0.0 300 / 241004.2 -14.1-18.6 1.9
2019-Jan-21 09:00N 41°30' W 070°42'0 0.0 310 / 191003.4 -13.5-18.6 2.0
2019-Jan-21 08:00N 41°30' W 070°42'0 0.0 290 / 251002.7 -12.4-17.0 2.0
2019-Jan-21 07:00N 41°30' W 070°42'0 0.0 300 / 211002.0 -12.2-17.1 2.2
2019-Jan-21 06:00N 41°30' W 070°42'0 0.0 320 / 151000.7 -11.0-15.6 2.3
2019-Jan-21 05:00N 41°30' W 070°42'0 0.0 310 / 14999.8 -9.1-13.6 2.5
2019-Jan-21 04:00N 41°30' W 070°42'0 0.0 330 / 21998.0 -7.3-12.8 2.6
2019-Jan-21 03:00N 41°30' W 070°42'0 0.0 340 / 9996.9 -4.8-9.6 2.5
2019-Jan-21 02:00N 41°30' W 070°42'0 0.0 300 / 15995.3 -3.2-7.9 2.5
2019-Jan-21 01:00N 41°30' W 070°42'0 0.0 320 / 19993.8 -2.4-5.5 2.5
2019-Jan-21 00:00N 41°30' W 070°42'0 0.0 330 / 14992.9 -2.7-4.7 2.6
2019-Jan-20 23:00N 41°30' W 070°42'0 0.0 350 / 11991.0 -3.0-4.2 2.6
2019-Jan-20 22:00N 41°30' W 070°42'0 0.0 350 / 11989.9 -1.7-3.1 2.6
2019-Jan-20 21:00N 41°30' W 070°42'0 0.0 330 / 14988.2 3.6 1.8 2.7
2019-Jan-20 20:00N 41°30' W 070°42'0 0.0 150 / 9987.4 9.9 8.9 2.7
2019-Jan-20 19:00N 41°30' W 070°42'0 0.0 110 / 7989.4 8.3 7.3 2.6
2019-Jan-20 18:00N 41°30' W 070°42'0 0.0 050 / 5990.6 6.5 5.5 2.6
2019-Jan-20 17:00N 41°30' W 070°42'0 0.0 090 / 1992.3 9.0 8.0 2.6
2019-Jan-20 16:00N 41°30' W 070°42'0 0.0 320 / 1994.8 7.6 6.6 2.5
2019-Jan-20 15:00N 41°30' W 070°42'0 0.0 180 / 25995.2 10.9 9.8 2.5
2019-Jan-20 14:00N 41°30' W 070°42'0 0.0 240 / 9997.4 9.7 8.8 2.5
2019-Jan-20 13:00N 41°30' W 070°42'0 0.0 350 / 5999.2 5.2 3.9 2.4
2019-Jan-20 12:00N 41°30' W 070°42'0 0.0 130 / 9999.1 9.3 8.4 2.4
2019-Jan-20 11:00N 41°30' W 070°42'0 0.0 130 / 11001.6 4.1 3.1 2.4
2019-Jan-20 10:00N 41°30' W 070°42'0 0.0 330 / 101004.9 2.9 1.8 2.3
2019-Jan-20 09:00N 41°30' W 070°42'0 0.0 070 / 131006.2 2.9 1.9 2.4
2019-Jan-20 08:00N 41°30' W 070°42'0 0.0 080 / 101009.7 2.3 1.2 2.4
2019-Jan-20 07:00N 41°30' W 070°42'0 0.0 080 / 101012.1 2.0 0.9 2.4
2019-Jan-20 06:00N 41°30' W 070°42'0 0.0 080 / 111014.2 1.4 0.3 2.4
2019-Jan-20 05:00N 41°30' W 070°42'0 0.0 080 / 161015.9 1.8 0.3 2.4
2019-Jan-20 04:00N 41°30' W 070°42'0 0.0 100 / 111018.3 1.9 0.5 2.4
2019-Jan-20 03:00N 41°30' W 070°42'0 0.0 100 / 161018.1 1.1-0.0 2.4
2019-Jan-20 02:00N 41°30' W 070°42'0 0.0 090 / 121020.6 0.6-0.5 2.4
2019-Jan-20 01:00N 41°30' W 070°42'0 0.0 110 / 111021.8 0.3-0.8 2.4
2019-Jan-20 00:00N 41°30' W 070°42'0 0.0 100 / 91021.7 -0.2-1.2 2.4
2019-Jan-19 23:00N 41°30' W 070°42'0 0.0 330 / 11023.0 -0.7-1.9 2.4
2019-Jan-19 22:00N 41°30' W 070°42'0 0.0 070 / 41023.2 -0.7-2.1 2.4
2019-Jan-19 21:00N 41°30' W 070°42'0 0.0 020 / 31023.3 -0.0-2.9 2.5
2019-Jan-19 20:00N 41°30' W 070°42'0 0.0 070 / 41022.4 0.2-3.7 2.6
2019-Jan-19 19:00N 41°30' W 070°42'0 0.0 070 / 81023.6 0.4-3.8 2.6
2019-Jan-19 18:00N 41°30' W 070°42'0 0.0 050 / 21024.0 0.4-3.6 2.6
2019-Jan-19 17:00N 41°30' W 070°42'0 0.0 050 / 61025.0 1.4-3.8 2.6
2019-Jan-19 16:00N 41°30' W 070°42'0 0.0 030 / 61025.0 2.5-3.7 2.5
2019-Jan-19 15:00N 41°30' W 070°42'0 0.0 340 / 51025.2 1.5-4.1 2.4
2019-Jan-19 14:00N 41°30' W 070°42'0 0.0 020 / 61024.1 -0.0-5.9 2.4
2019-Jan-19 13:00N 41°30' W 070°42'0 0.0 020 / 71023.8 -0.0-5.4 2.4
2019-Jan-19 12:00N 41°30' W 070°42'0 0.0 010 / 51023.8 0.1-6.2 2.4
2019-Jan-19 11:00N 41°30' W 070°42'0 0.0 020 / 71022.8 0.4-5.8 2.4
2019-Jan-19 10:00N 41°30' W 070°42'0 0.0 340 / 81022.1 0.9-5.6 2.5
2019-Jan-19 09:00N 41°30' W 070°42'0 0.0 330 / 81022.2 1.1-4.2 2.5
2019-Jan-19 08:00N 41°30' W 070°42'0 0.0 300 / 61021.0 1.4-2.8 2.6
2019-Jan-19 07:00N 41°30' W 070°42'0 0.0 310 / 41020.8 1.7-1.3 2.6
2019-Jan-19 06:00N 41°30' W 070°42'0 0.0 290 / 101020.4 2.2-1.1 2.6
2019-Jan-19 05:00N 41°30' W 070°42'0 0.0 300 / 81019.9 2.1-0.8 2.6
2019-Jan-19 04:00N 41°30' W 070°42'0 0.0 290 / 81019.4 2.3-0.4 2.5
2019-Jan-19 03:00N 41°30' W 070°42'0 0.0 270 / 91019.1 2.6-0.2 2.5
2019-Jan-19 02:00N 41°30' W 070°42'0 0.0 260 / 41018.3 2.2-0.3 2.5
2019-Jan-19 01:00N 41°30' W 070°42'0 0.0 250 / 101017.8 1.8 0.1 2.5
2019-Jan-19 00:00N 41°30' W 070°42'0 0.0 170 / 191017.3 1.5 0.4 2.5
2019-Jan-18 23:00N 41°30' W 070°42'0 0.0 190 / 261018.0 0.8-0.3 2.5
2019-Jan-18 22:00N 41°30' W 070°42'0 0.0 220 / 251017.3 0.9-0.2 2.5
2019-Jan-18 21:00N 41°30' W 070°42'0 0.0 170 / 41016.7 0.9-0.4 2.6
2019-Jan-18 20:00N 41°30' W 070°42'0 0.0 120 / 51017.2 1.6-0.0 2.6
2019-Jan-18 19:00N 41°30' W 070°42'0 0.0 110 / 51016.7 2.4-0.1 2.6
2019-Jan-18 18:00N 41°30' W 070°42'0 0.0 100 / 61017.6 2.0-0.2 2.6
2019-Jan-18 17:00N 41°30' W 070°42'0 0.0 100 / 81018.5 1.9-0.1 2.6
2019-Jan-18 16:00N 41°30' W 070°42'0 0.0 110 / 71019.7 1.7-0.2 2.5
2019-Jan-18 15:00N 41°30' W 070°42'0 0.0 110 / 121019.9 1.3-0.4 2.5
2019-Jan-18 14:00N 41°30' W 070°42'0 0.0 100 / 71020.4 1.1-0.9 2.5
2019-Jan-18 13:00N 41°30' W 070°42'0 0.0 110 / 111020.2 0.9-1.3 2.4
2019-Jan-18 12:00N 41°30' W 070°42'0 0.0 100 / 71020.7 0.8-2.7 2.4
2019-Jan-18 11:00N 41°30' W 070°42'0 0.0 120 / 61021.0 1.1-3.9 2.4
2019-Jan-18 10:00N 41°30' W 070°42'0 0.0 080 / 71021.2 -0.3-5.4 2.4
2019-Jan-18 09:00N 41°30' W 070°42'0 0.0 050 / 31022.2 -1.7-7.3 2.4
2019-Jan-18 08:00N 41°30' W 070°42'0 0.0 020 / 41023.5 -1.8-7.4 2.5
2019-Jan-18 07:00N 41°30' W 070°42'0 0.0 080 / 61023.8 -2.3-8.5 2.6
2019-Jan-18 06:00N 41°30' W 070°42'0 0.0 080 / 61024.7 -2.4-8.6 2.6
2019-Jan-18 05:00N 41°30' W 070°42'0 0.0 080 / 51025.7 -3.0-8.7 2.6
2019-Jan-18 04:00N 41°30' W 070°42'0 0.0 070 / 51026.8 -3.2-9.4 2.5
2019-Jan-18 03:00N 41°30' W 070°42'0 0.0 060 / 41027.2 -3.5-10.6 2.5
2019-Jan-18 02:00N 41°30' W 070°42'0 0.0 020 / 21027.1 -3.1-10.9 2.5
2019-Jan-18 01:00N 41°30' W 070°42'0 0.0 080 / 21027.9 -3.3-11.6 2.5
2019-Jan-18 00:00N 41°30' W 070°42'0 0.0 080 / 31027.7 -3.3-11.7 2.5
2019-Jan-17 23:00N 41°30' W 070°42'0 0.0 070 / 51027.6 -3.0-12.7 2.5
2019-Jan-17 22:00N 41°30' W 070°42'0 0.0 100 / 61027.5 -2.9-12.9 2.5
2019-Jan-17 21:00N 41°30' W 070°42'0 0.0 130 / 61027.5 -2.5-15.3 2.5
2019-Jan-17 20:00N 41°30' W 070°42'0 0.0 290 / 31027.7 -2.0-19.2 2.5
2019-Jan-17 19:00N 41°30' W 070°42'0 0.0 330 / 61027.9 -2.3-18.0 2.7
2019-Jan-17 18:00N 41°30' W 070°42'0 0.0 320 / 31027.9 -3.0-15.8 2.8
2019-Jan-17 17:00N 41°30' W 070°42'0 0.0 320 / 61028.7 -4.0-15.7 2.9
2019-Jan-17 16:00N 41°30' W 070°42'0 0.0 010 / 81029.3 -4.6-16.3 3.0
2019-Jan-17 15:00N 41°30' W 070°42'0 0.0 350 / 71029.7 -5.1-15.9 2.7
2019-Jan-17 14:00N 41°30' W 070°42'0 0.0 1028.9 -4.9-15.8 2.5
2019-Jan-17 13:00N 41°30' W 070°42'0 0.0 330 / 61027.9 -4.6-16.2 2.5
2019-Jan-17 12:00N 41°30' W 070°42'0 0.0 340 / 111026.7 -4.1-16.1 2.5
2019-Jan-17 11:00N 41°30' W 070°42'0 0.0 350 / 141025.6 -3.0-12.9 2.5
2019-Jan-17 10:00N 41°30' W 070°42'0 0.0 350 / 171024.7 -2.1-12.2 2.5
2019-Jan-17 09:00N 41°30' W 070°42'0 0.0 310 / 101023.9 -1.2-9.8 2.6
2019-Jan-17 08:00N 41°30' W 070°42'0 0.0 320 / 151023.4 -0.6-9.6 2.6
2019-Jan-17 07:00N 41°30' W 070°42'0 0.0 310 / 111022.4 -0.2-9.6 2.6
2019-Jan-17 06:00N 41°30' W 070°42'0 0.0 300 / 131021.3 0.4-8.5 2.7
2019-Jan-17 05:00N 41°30' W 070°42'0 0.0 290 / 161020.5 1.3-6.9 2.7
2019-Jan-17 04:00N 41°30' W 070°42'0 0.0 290 / 171019.7 2.2-5.1 2.6
2019-Jan-17 03:00N 41°30' W 070°42'0 0.0 280 / 171018.8 2.9-4.3 2.6
2019-Jan-17 02:00N 41°30' W 070°42'0 0.0 260 / 151018.0 3.3-3.7 2.6
2019-Jan-17 01:00N 41°30' W 070°42'0 0.0 260 / 131017.4 2.9-4.0 2.6
2019-Jan-17 00:00N 41°30' W 070°42'0 0.0 240 / 121017.3 2.3-4.3 2.6
2019-Jan-16 23:00N 41°30' W 070°42'0 0.0 250 / 101016.5 2.3-4.7 2.6
2019-Jan-16 22:00N 41°30' W 070°42'0 0.0 280 / 131015.9 2.4-5.2 2.7
2019-Jan-16 21:00N 41°30' W 070°42'0 0.0 290 / 161015.4 2.3-5.0 2.7
2019-Jan-16 20:00N 41°30' W 070°42'0 0.0 270 / 151014.8 2.0-4.0 2.7
2019-Jan-16 19:00N 41°30' W 070°42'0 0.0 260 / 161014.3 1.8-4.4 2.7
2019-Jan-16 18:00N 41°30' W 070°42'0 0.0 260 / 181014.7 1.6-4.6 2.7
2019-Jan-16 17:00N 41°30' W 070°42'0 0.0 240 / 201015.2 2.2-4.0 2.7
2019-Jan-16 16:00N 41°30' W 070°42'0 0.0 240 / 181016.1 2.5-3.8 2.9
2019-Jan-16 15:00N 41°30' W 070°42'0 0.0 250 / 121016.7 3.0-2.3 2.8
2019-Jan-16 14:00N 41°30' W 070°42'0 0.0 230 / 141016.7 2.6-3.5 2.6
2019-Jan-16 13:00N 41°30' W 070°42'0 0.0 230 / 101016.7 1.3-4.3 2.6
2019-Jan-16 12:00N 41°30' W 070°42'0 0.0 260 / 51016.8 0.3-3.3 2.6
2019-Jan-16 11:00N 41°30' W 070°42'0 0.0 280 / 61016.8 0.2-4.8 2.6
2019-Jan-16 10:00N 41°30' W 070°42'0 0.0 250 / 31016.9 -0.0-5.2 2.5
2019-Jan-16 09:00N 41°30' W 070°42'0 0.0 230 / 31016.6 -0.1-4.3 2.6
2019-Jan-16 08:00N 41°30' W 070°42'0 0.0 180 / 31017.1 -0.5-4.7 2.6
2019-Jan-16 07:00N 41°30' W 070°42'0 0.0 230 / 11017.8 -1.0-5.3 2.6
2019-Jan-16 06:00N 41°30' W 070°42'0 0.0 310 / 11017.8 -0.6-5.6 2.6
2019-Jan-16 05:00N 41°30' W 070°42'0 0.0 320 / 21018.4 -0.4-6.4 2.8
2019-Jan-16 04:00N 41°30' W 070°42'0 0.0 310 / 21019.0 -0.2-5.6 2.8
2019-Jan-16 03:00N 41°30' W 070°42'0 0.0 220 / 31019.2 0.1-6.0 2.9
2019-Jan-16 02:00N 41°30' W 070°42'0 0.0 150 / 31019.3 -0.0-7.0 2.9
2019-Jan-16 01:00N 41°30' W 070°42'0 0.0 130 / 31019.1 -0.0-6.6 2.8
2019-Jan-16 00:00N 41°30' W 070°42'0 0.0 120 / 31019.1 0.1-7.9 2.7
2019-Jan-15 23:00N 41°30' W 070°42'0 0.0 110 / 31018.8 0.3-9.9 2.7
2019-Jan-15 22:00N 41°30' W 070°42'0 0.0 130 / 31018.3 0.3-10.4 2.7
2019-Jan-15 21:00N 41°30' W 070°42'0 0.0 100 / 21018.1 0.4-10.4 2.7
2019-Jan-15 20:00N 41°30' W 070°42'0 0.0 040 / 21018.1 0.4-10.5 2.7
2019-Jan-15 19:00N 41°30' W 070°42'0 0.0 350 / 41017.8 0.3-10.2 2.7
2019-Jan-15 18:00N 41°30' W 070°42'0 0.0 020 / 41017.6 0.2-11.3 2.6
2019-Jan-15 17:00N 41°30' W 070°42'0 0.0 350 / 51017.9 -0.6-11.9 2.8
2019-Jan-15 16:00N 41°30' W 070°42'0 0.0 330 / 31018.7 -1.8-11.3 3.0
2019-Jan-15 15:00N 41°30' W 070°42'0 0.0 330 / 71019.3 -2.8-11.9 2.9
2019-Jan-15 14:00N 41°30' W 070°42'0 0.0 330 / 71018.8 -2.7-11.8 2.9
2019-Jan-15 13:00N 41°30' W 070°42'0 0.0 1017.9 -3.1-11.3 2.8
2019-Jan-15 12:00N 41°30' W 070°42'0 0.0 330 / 71017.5 -3.2-12.0 2.5
2019-Jan-15 11:00N 41°30' W 070°42'0 0.0 340 / 101017.3 -2.8-11.9 2.6
2019-Jan-15 10:00N 41°30' W 070°42'0 0.0 360 / 71017.0 -3.1-11.0 2.6
2019-Jan-15 09:00N 41°30' W 070°42'0 0.0 1016.8 -2.8-11.2 2.6
2019-Jan-15 08:00N 41°30' W 070°42'0 0.0 340 / 91017.1 -2.6-9.7 2.6
2019-Jan-15 07:00N 41°30' W 070°42'0 0.0 330 / 71017.4 -2.3-8.9 2.5
2019-Jan-15 06:00N 41°30' W 070°42'0 0.0 300 / 91017.3 -2.2-8.9 2.5
2019-Jan-15 05:00N 41°30' W 070°42'0 0.0 300 / 101017.5 -2.0-7.8 2.5
2019-Jan-15 04:00N 41°30' W 070°42'0 0.0 310 / 81018.2 -1.6-7.1 2.8
2019-Jan-15 03:00N 41°30' W 070°42'0 0.0 330 / 51018.5 -1.9-6.8 2.9
2019-Jan-15 02:00N 41°30' W 070°42'0 0.0 030 / 41018.6 -2.0-7.1 2.8
2019-Jan-15 01:00N 41°30' W 070°42'0 0.0 360 / 21019.1 -2.0-6.7 2.8
2019-Jan-15 00:00N 41°30' W 070°42'0 0.0 010 / 61019.3 -1.8-6.8 2.7
2019-Jan-14 23:00N 41°30' W 070°42'0 0.0 010 / 81019.5 -1.1-5.8 2.7
2019-Jan-14 22:00N 41°30' W 070°42'0 0.0 030 / 61019.2 -0.7-5.8 2.7
2019-Jan-14 21:00N 41°30' W 070°42'   020 / 101019.0 -0.3-5.9 2.7

Dump ship's entire track history